Time;durP1;ratioP1;P1;durP2;ratioP2;P2;SDS_P1;SDS_P2;PMS_P1;PMS_P2;Temp;Humidity;BMP_temperature;BMP_pressure;BME280_temperature;BME280_humidity;BME280_pressure;Samples;Min_cycle;Max_cycle;Signal;HPM_P1;HPM_P2
2021/05/05 00:00:22;;;;;;;1.00;0.30;;;16.40;69.10;;;;;;4994442;28;20539;-65
2021/05/05 00:02:48;;;;;;;1.80;0.57;;;16.40;69.10;;;;;;4994221;28;20026;-65
2021/05/05 00:05:14;;;;;;;0.80;0.30;;;17.40;69.90;;;;;;4993715;28;20379;-65
2021/05/05 00:07:41;;;;;;;0.85;0.32;;;16.30;68.90;;;;;;4994316;28;20065;-65
2021/05/05 00:10:08;;;;;;;0.50;0.35;;;17.50;69.40;;;;;;4994136;28;20031;-65
2021/05/05 00:12:35;;;;;;;1.27;0.35;;;16.50;68.20;;;;;;4994210;28;20030;-65
2021/05/05 00:15:02;;;;;;;0.68;0.22;;;16.50;69.50;;;;;;4994097;28;20036;-65
2021/05/05 00:17:28;;;;;;;1.77;0.40;;;17.30;69.80;;;;;;4994015;28;20029;-65
2021/05/05 00:19:53;;;;;;;0.52;0.20;;;16.60;69.20;;;;;;4994027;28;20030;-65
2021/05/05 00:22:20;;;;;;;1.50;0.43;;;16.50;69.20;;;;;;4993923;28;20105;-65
2021/05/05 00:24:45;;;;;;;1.25;0.30;;;16.90;69.50;;;;;;4993920;28;20034;-65
2021/05/05 00:27:11;;;;;;;0.85;0.45;;;16.90;69.70;;;;;;4993853;28;20030;-65
2021/05/05 00:29:36;;;;;;;1.05;0.70;;;17.00;69.80;;;;;;4994012;28;20034;-65
2021/05/05 00:32:02;;;;;;;2.50;0.40;;;16.20;69.10;;;;;;4994035;28;20018;-64
2021/05/05 00:34:28;;;;;;;1.05;0.30;;;16.50;69.10;;;;;;4993711;28;20026;-65
2021/05/05 00:36:54;;;;;;;1.83;0.50;;;16.50;69.50;;;;;;4994045;28;20022;-65
2021/05/05 00:39:19;;;;;;;1.48;0.20;;;16.70;69.40;;;;;;4992491;28;20030;-65
2021/05/05 00:41:45;;;;;;;0.93;0.30;;;16.70;69.60;;;;;;4993677;28;20106;-65
2021/05/05 00:44:10;;;;;;;1.98;0.40;;;16.40;69.40;;;;;;4993617;28;20479;-65
2021/05/05 00:46:36;;;;;;;1.08;0.20;;;16.50;69.50;;;;;;4993588;28;20038;-65
2021/05/05 00:49:02;;;;;;;0.38;0.17;;;16.80;69.80;;;;;;4993463;28;20483;-64
2021/05/05 00:51:27;;;;;;;0.30;0.30;;;16.50;69.40;;;;;;4993493;28;20093;-65
2021/05/05 00:53:53;;;;;;;1.63;0.38;;;16.40;69.70;;;;;;4993463;28;20029;-65
2021/05/05 00:56:19;;;;;;;0.60;0.30;;;16.40;69.60;;;;;;4993461;28;20022;-65
2021/05/05 00:58:45;;;;;;;0.75;0.40;;;16.40;69.80;;;;;;4993424;28;20483;-65
2021/05/05 01:01:10;;;;;;;2.63;0.60;;;17.20;70.10;;;;;;4993351;28;20027;-65
2021/05/05 01:03:36;;;;;;;0.65;0.45;;;16.40;69.60;;;;;;4993093;28;20074;-65
2021/05/05 01:06:02;;;;;;;1.15;0.40;;;16.80;69.80;;;;;;4993549;28;20026;-65
2021/05/05 01:08:30;;;;;;;1.20;0.47;;;16.30;69.20;;;;;;4993282;28;20046;-65
2021/05/05 01:10:56;;;;;;;1.63;0.60;;;16.10;69.70;;;;;;4993095;28;20088;-65
2021/05/05 01:13:21;;;;;;;1.27;0.47;;;16.30;69.60;;;;;;4992099;28;20022;-65
2021/05/05 01:15:47;;;;;;;1.17;0.40;;;16.30;69.90;;;;;;4993061;28;20022;-65
2021/05/05 01:18:12;;;;;;;1.77;0.40;;;16.30;69.50;;;;;;4993073;28;20014;-65
2021/05/05 01:20:39;;;;;;;0.50;0.20;;;16.40;69.80;;;;;;4993155;28;20062;-65
2021/05/05 01:23:04;;;;;;;1.05;0.43;;;16.40;69.60;;;;;;4993162;28;20069;-65
2021/05/05 01:25:30;;;;;;;1.30;0.50;;;16.40;69.60;;;;;;4993130;28;20022;-65
2021/05/05 01:27:55;;;;;;;0.73;0.32;;;16.20;69.60;;;;;;4993371;28;20121;-65
2021/05/05 01:30:23;;;;;;;1.63;0.30;;;16.30;69.60;;;;;;4992985;28;20048;-65
2021/05/05 01:32:49;;;;;;;2.28;0.43;;;16.60;69.80;;;;;;4993161;28;20018;-65
2021/05/05 01:35:17;;;;;;;0.95;0.40;;;16.70;70.60;;;;;;4993049;28;20111;-65
2021/05/05 01:37:44;;;;;;;1.52;0.30;;;16.40;69.70;;;;;;4992996;28;20068;-65
2021/05/05 01:40:12;;;;;;;1.25;0.43;;;16.70;70.00;;;;;;4992924;28;20031;-65
2021/05/05 01:42:38;;;;;;;0.95;0.40;;;16.20;69.60;;;;;;4975517;28;20023;-65
2021/05/05 01:45:05;;;;;;;2.47;0.70;;;16.20;69.50;;;;;;4992895;28;20113;-65
2021/05/05 01:47:31;;;;;;;2.05;0.40;;;16.10;68.00;;;;;;4993103;28;20023;-64
2021/05/05 01:49:56;;;;;;;2.47;0.60;;;16.20;69.50;;;;;;4992832;28;20514;-65
2021/05/05 01:52:22;;;;;;;4.20;0.50;;;16.20;70.00;;;;;;4993167;28;20049;-65
2021/05/05 01:54:47;;;;;;;1.23;0.47;;;16.30;70.10;;;;;;4992880;28;20030;-64
2021/05/05 01:57:28;;;;;;;0.75;0.35;;;16.20;69.70;;;;;;4993117;28;20076;-64
2021/05/05 01:59:54;;;;;;;;;;;16.20;70.20;;;;;;4993258;28;20057;-65
2021/05/05 02:02:20;;;;;;;2.28;0.85;;;16.30;70.00;;;;;;4992870;28;19905;-65
2021/05/05 02:04:45;;;;;;;1.58;0.38;;;16.70;70.00;;;;;;4992628;28;20069;-65
2021/05/05 02:07:11;;;;;;;2.13;0.40;;;16.50;70.10;;;;;;4992730;28;20081;-65
2021/05/05 02:09:36;;;;;;;1.98;0.60;;;16.30;69.90;;;;;;4992708;28;20502;-65
2021/05/05 02:12:02;;;;;;;2.13;0.45;;;16.20;69.80;;;;;;4992965;28;20023;-65
2021/05/05 02:14:28;;;;;;;1.85;0.50;;;16.10;69.00;;;;;;4975264;28;20501;-65
2021/05/05 02:16:59;;;;;;;1.35;0.40;;;16.10;69.60;;;;;;4992649;28;20121;-65
2021/05/05 02:19:25;;;;;;;3.17;0.60;;;16.20;70.00;;;;;;4992643;28;20533;-65
2021/05/05 02:21:51;;;;;;;1.15;0.40;;;16.20;69.70;;;;;;4975086;28;20105;-65
2021/05/05 02:24:17;;;;;;;2.38;0.30;;;16.10;69.30;;;;;;4992569;28;20097;-65
2021/05/05 02:26:42;;;;;;;1.65;0.57;;;16.00;69.20;;;;;;4992586;28;20026;-64
2021/05/05 02:29:08;;;;;;;1.92;0.65;;;16.20;69.60;;;;;;4995897;28;20038;-64
2021/05/05 02:31:34;;;;;;;1.92;0.52;;;16.40;69.80;;;;;;4996384;28;20030;-64
2021/05/05 02:34:00;;;;;;;1.98;0.50;;;16.10;69.80;;;;;;4996309;28;20054;-66
2021/05/05 02:36:29;;;;;;;1.08;0.50;;;16.10;69.40;;;;;;4995961;28;20061;-64
2021/05/05 02:38:54;;;;;;;0.47;0.28;;;16.10;70.00;;;;;;4996029;28;20030;-65
2021/05/05 02:41:20;;;;;;;1.40;0.50;;;16.10;69.50;;;;;;4978501;28;20027;-65
2021/05/05 02:43:46;;;;;;;2.38;0.55;;;15.90;69.50;;;;;;4995735;28;20023;-64
2021/05/05 02:46:11;;;;;;;1.52;0.68;;;16.40;69.90;;;;;;4996162;28;20030;-64
2021/05/05 02:48:37;;;;;;;1.92;0.60;;;16.00;69.30;;;;;;4978360;28;20018;-64
2021/05/05 02:51:03;;;;;;;0.68;0.50;;;16.40;70.10;;;;;;4995763;28;20057;-64
2021/05/05 02:53:28;;;;;;;3.00;0.80;;;15.90;69.70;;;;;;4995725;28;20022;-64
2021/05/05 02:55:54;;;;;;;3.10;0.50;;;16.00;69.80;;;;;;4995656;28;20026;-64
2021/05/05 02:58:19;;;;;;;3.35;0.73;;;16.00;70.00;;;;;;4995612;28;20026;-65
2021/05/05 03:00:45;;;;;;;2.85;0.80;;;16.10;69.80;;;;;;4995556;28;20041;-65
2021/05/05 03:03:11;;;;;;;2.97;0.57;;;16.40;69.90;;;;;;4995540;28;20100;-64
2021/05/05 03:05:36;;;;;;;1.00;0.40;;;16.00;69.70;;;;;;4994585;28;20030;-64
2021/05/05 03:08:03;;;;;;;1.45;0.43;;;16.00;70.00;;;;;;4995344;28;20054;-64
2021/05/05 03:10:28;;;;;;;1.05;0.40;;;15.70;69.10;;;;;;4995514;28;20057;-64
2021/05/05 03:12:54;;;;;;;2.60;0.57;;;15.80;69.50;;;;;;4977911;28;20027;-65
2021/05/05 03:15:20;;;;;;;2.63;0.50;;;15.90;69.70;;;;;;4995301;28;20030;-64
2021/05/05 03:17:45;;;;;;;1.88;0.55;;;15.80;69.20;;;;;;4995615;28;20026;-65
2021/05/05 03:20:12;;;;;;;2.78;0.68;;;15.90;69.70;;;;;;4995338;28;20022;-65
2021/05/05 03:22:38;;;;;;;2.58;0.40;;;15.80;68.90;;;;;;4995626;28;20412;-64
2021/05/05 03:25:08;;;;;;;1.73;0.55;;;15.90;69.70;;;;;;4995306;28;20057;-64
2021/05/05 03:27:34;;;;;;;1.10;0.40;;;15.90;65.50;;;;;;4995213;28;20065;-64
2021/05/05 03:30:00;;;;;;;2.80;0.70;;;15.80;69.50;;;;;;4995157;28;20069;-64
2021/05/05 03:32:26;;;;;;;2.30;0.50;;;15.70;69.50;;;;;;4993941;28;20478;-65
2021/05/05 03:34:52;;;;;;;1.65;0.43;;;15.90;69.70;;;;;;4995309;28;20110;-64
2021/05/05 03:37:18;;;;;;;1.27;0.50;;;15.90;69.70;;;;;;4995135;28;20022;-64
2021/05/05 03:39:43;;;;;;;1.00;0.40;;;15.80;69.70;;;;;;4994208;28;20014;-64
2021/05/05 03:42:09;;;;;;;1.90;0.50;;;15.80;69.50;;;;;;4994983;28;20030;-64
2021/05/05 03:44:35;;;;;;;1.33;0.40;;;15.80;69.60;;;;;;4994874;28;20114;-65
2021/05/05 03:47:00;;;;;;;1.77;0.50;;;15.70;69.40;;;;;;4995096;28;20026;-65
2021/05/05 03:49:26;;;;;;;1.20;0.40;;;15.80;69.40;;;;;;4995046;28;20169;-64
2021/05/05 03:51:52;;;;;;;1.50;0.70;;;15.80;69.40;;;;;;4994721;28;20450;-65
2021/05/05 03:54:18;;;;;;;1.02;0.40;;;15.80;69.40;;;;;;4994727;28;20451;-65
2021/05/05 03:56:45;;;;;;;0.98;0.35;;;16.00;69.40;;;;;;4994804;28;20050;-65
2021/05/05 03:59:11;;;;;;;1.77;0.55;;;15.90;69.80;;;;;;4994628;28;20030;-65
2021/05/05 04:01:36;;;;;;;1.05;0.50;;;16.00;69.80;;;;;;4994434;28;20033;-65
2021/05/05 04:04:02;;;;;;;1.08;0.40;;;16.30;69.90;;;;;;4994206;28;20048;-65
2021/05/05 04:06:28;;;;;;;0.60;0.30;;;15.70;69.00;;;;;;4994355;28;20027;-65
2021/05/05 04:08:53;;;;;;;1.88;0.50;;;15.70;69.60;;;;;;4994568;28;20030;-65
2021/05/05 04:11:20;;;;;;;1.88;0.40;;;15.70;69.50;;;;;;4992777;28;20034;-64
2021/05/05 04:13:46;;;;;;;2.40;0.40;;;15.90;69.20;;;;;;4994198;28;20022;-65
2021/05/05 04:16:11;;;;;;;0.75;0.40;;;15.70;69.60;;;;;;4994355;28;20426;-65
2021/05/05 04:18:37;;;;;;;2.70;0.40;;;15.90;69.60;;;;;;4994300;28;20018;-65
2021/05/05 04:21:06;;;;;;;1.27;0.45;;;15.80;69.50;;;;;;4994037;28;20027;-65
2021/05/05 04:23:33;;;;;;;0.60;0.43;;;15.70;69.20;;;;;;4993995;28;20022;-65
2021/05/05 04:25:59;;;;;;;1.55;0.40;;;15.60;69.40;;;;;;4993927;28;20023;-65
2021/05/05 04:28:25;;;;;;;0.85;0.38;;;15.80;69.50;;;;;;4976544;28;20479;-65
2021/05/05 04:30:51;;;;;;;3.20;0.52;;;15.80;69.50;;;;;;4993741;28;20058;-65
2021/05/05 04:33:17;;;;;;;1.58;0.40;;;15.80;69.70;;;;;;4993816;28;20387;-64
2021/05/05 04:35:42;;;;;;;1.50;0.55;;;16.60;70.40;;;;;;4976363;28;20502;-64
2021/05/05 04:38:08;;;;;;;1.05;0.38;;;15.70;69.50;;;;;;4993746;28;20077;-64
2021/05/05 04:40:33;;;;;;;1.15;0.45;;;16.00;69.70;;;;;;4993893;28;20018;-64
2021/05/05 04:42:59;;;;;;;1.00;0.40;;;15.60;69.40;;;;;;4993942;28;20467;-64
2021/05/05 04:45:25;;;;;;;1.65;0.40;;;15.70;69.80;;;;;;4993567;28;20069;-64
2021/05/05 04:47:51;;;;;;;1.25;0.40;;;15.80;70.00;;;;;;4993812;28;20018;-64
2021/05/05 04:50:16;;;;;;;1.02;0.38;;;15.60;69.10;;;;;;4993448;28;20030;-64
2021/05/05 04:52:43;;;;;;;1.05;0.40;;;15.70;69.80;;;;;;4992275;28;20085;-65
2021/05/05 04:55:10;;;;;;;1.48;0.50;;;15.70;69.80;;;;;;4993479;28;20096;-64
2021/05/05 04:57:35;;;;;;;1.33;0.70;;;15.60;68.70;;;;;;4993270;28;20022;-64
2021/05/05 05:00:04;;;;;;;1.85;0.40;;;16.10;70.50;;;;;;4993591;28;20109;-65
2021/05/05 05:02:30;;;;;;;1.80;0.50;;;15.70;69.90;;;;;;4975837;28;20387;-64
2021/05/05 05:04:55;;;;;;;1.02;0.43;;;15.60;70.10;;;;;;4993101;28;20050;-64
2021/05/05 05:07:21;;;;;;;1.40;0.50;;;15.60;69.50;;;;;;4992083;28;20030;-65
2021/05/05 05:09:46;;;;;;;0.85;0.40;;;15.70;69.70;;;;;;4993243;28;20037;-65
2021/05/05 05:12:12;;;;;;;1.17;0.43;;;15.70;69.80;;;;;;4993285;28;20390;-65
2021/05/05 05:14:38;;;;;;;1.92;0.50;;;15.60;69.80;;;;;;4993513;28;20030;-65
2021/05/05 05:17:04;;;;;;;1.00;0.30;;;16.20;70.00;;;;;;4993204;28;20022;-64
2021/05/05 05:19:30;;;;;;;0.40;0.22;;;15.80;69.70;;;;;;4993398;28;20101;-65
2021/05/05 05:21:56;;;;;;;0.93;0.28;;;16.00;69.80;;;;;;4993176;28;20467;-65
2021/05/05 05:24:21;;;;;;;1.33;0.40;;;16.20;70.70;;;;;;4993090;28;20060;-64
2021/05/05 05:26:47;;;;;;;1.48;0.38;;;15.60;69.60;;;;;;4991869;28;20032;-65
2021/05/05 05:29:12;;;;;;;1.75;0.45;;;15.80;69.70;;;;;;4992988;28;20081;-65
2021/05/05 05:31:38;;;;;;;2.17;0.43;;;15.90;70.00;;;;;;4993056;28;20037;-65
2021/05/05 05:34:04;;;;;;;0.75;0.28;;;15.60;69.70;;;;;;4975618;28;20034;-65
2021/05/05 05:36:29;;;;;;;0.95;0.30;;;15.70;69.80;;;;;;4993035;28;20031;-65
2021/05/05 05:38:55;;;;;;;1.90;0.55;;;16.00;70.00;;;;;;4992968;28;20387;-65
2021/05/05 05:41:20;;;;;;;1.75;0.45;;;15.60;69.40;;;;;;4993070;28;20027;-65
2021/05/05 05:43:46;;;;;;;1.50;0.70;;;15.80;69.60;;;;;;4992872;28;20061;-64
2021/05/05 05:46:12;;;;;;;0.68;0.35;;;15.70;69.60;;;;;;4993246;28;20349;-65
2021/05/05 05:48:37;;;;;;;1.63;0.40;;;15.60;69.60;;;;;;4992876;28;20026;-65
2021/05/05 05:51:03;;;;;;;0.40;0.40;;;15.60;69.50;;;;;;4992769;28;20442;-65
2021/05/05 05:53:29;;;;;;;0.82;0.30;;;;;;;;;;4992851;28;20034;-66
2021/05/05 05:55:55;;;;;;;1.23;0.50;;;15.30;64.30;;;;;;4993003;28;20023;-66
2021/05/05 05:58:21;;;;;;;2.50;0.40;;;15.60;69.50;;;;;;4992902;28;20487;-65
2021/05/05 06:00:46;;;;;;;1.73;0.50;;;16.00;69.90;;;;;;4992790;28;20034;-65
2021/05/05 06:03:12;;;;;;;1.77;0.60;;;15.60;69.40;;;;;;4994826;28;20039;-65
2021/05/05 06:05:38;;;;;;;0.40;0.22;;;15.70;69.50;;;;;;4996519;28;20554;-65
2021/05/05 06:08:04;;;;;;;0.73;0.45;;;15.90;69.30;;;;;;4996524;28;20022;-65
2021/05/05 06:10:31;;;;;;;0.82;0.50;;;15.50;68.80;;;;;;4978855;28;20066;-65
2021/05/05 06:12:56;;;;;;;1.27;0.55;;;15.70;69.60;;;;;;4996439;28;20033;-65
2021/05/05 06:15:22;;;;;;;2.10;0.40;;;15.50;69.20;;;;;;4996321;28;20034;-65
2021/05/05 06:17:48;;;;;;;1.75;0.63;;;15.50;68.90;;;;;;4996401;28;20025;-66
2021/05/05 06:20:14;;;;;;;1.30;0.47;;;15.60;69.10;;;;;;4995128;28;20022;-67
2021/05/05 06:22:40;;;;;;;4.53;0.60;;;15.50;68.50;;;;;;4996247;28;20503;-67
2021/05/05 06:25:07;;;;;;;1.80;0.70;;;15.60;69.20;;;;;;4996505;28;20022;-66
2021/05/05 06:27:34;;;;;;;0.75;0.40;;;15.50;68.60;;;;;;4978635;28;20048;-66
2021/05/05 06:30:00;;;;;;;2.50;0.90;;;15.60;69.30;;;;;;4978609;28;20117;-66
2021/05/05 06:32:25;;;;;;;4.35;1.00;;;15.60;68.50;;;;;;4996095;28;20069;-67
2021/05/05 06:34:52;;;;;;;1.52;0.70;;;15.60;68.70;;;;;;4996283;28;20022;-65
2021/05/05 06:37:18;;;;;;;3.53;0.68;;;15.50;69.40;;;;;;4995800;28;20483;-66
2021/05/05 06:39:45;;;;;;;1.90;0.50;;;15.70;69.50;;;;;;4995678;28;20022;-66
2021/05/05 06:42:11;;;;;;;2.30;0.73;;;15.60;69.30;;;;;;4995879;28;20053;-66
2021/05/05 06:44:36;;;;;;;1.75;0.77;;;15.90;69.20;;;;;;4995772;28;20019;-64
2021/05/05 06:47:02;;;;;;;2.95;0.77;;;15.70;69.20;;;;;;4995774;28;20042;-64
2021/05/05 06:49:29;;;;;;;2.33;0.80;;;15.90;69.50;;;;;;4995715;28;20033;-66
2021/05/05 06:51:55;;;;;;;1.98;0.80;;;15.50;69.20;;;;;;4996136;28;20140;-66
2021/05/05 06:54:21;;;;;;;5.10;0.90;;;15.80;69.20;;;;;;4995708;28;20054;-68
2021/05/05 06:56:46;;;;;;;5.25;0.60;;;16.00;68.90;;;;;;4995719;28;20042;-67
2021/05/05 06:59:12;;;;;;;7.57;1.63;;;15.90;70.00;;;;;;4978176;28;20021;-64
2021/05/05 07:01:39;;;;;;;9.20;1.30;;;16.00;70.60;;;;;;4995682;28;20019;-67
2021/05/05 07:04:06;;;;;;;14.77;1.20;;;16.10;70.10;;;;;;4995383;28;20042;-67
2021/05/05 07:06:32;;;;;;;5.82;1.10;;;15.60;69.70;;;;;;4995642;28;20093;-67
2021/05/05 07:08:58;;;;;;;9.25;1.10;;;16.10;70.60;;;;;;4995847;28;20042;-67
2021/05/05 07:11:25;;;;;;;14.32;2.03;;;15.70;70.20;;;;;;4978006;28;20410;-67
2021/05/05 07:13:51;;;;;;;5.20;0.90;;;16.10;70.80;;;;;;4995146;28;20030;-67
2021/05/05 07:16:16;;;;;;;4.10;0.80;;;15.60;70.30;;;;;;4995477;28;20566;-67
2021/05/05 07:18:42;;;;;;;4.25;1.20;;;15.60;70.40;;;;;;4994185;28;20019;-67
2021/05/05 07:21:08;;;;;;;5.28;0.95;;;15.70;70.50;;;;;;4995379;28;20022;-67
2021/05/05 07:23:33;;;;;;;6.63;0.95;;;16.40;70.90;;;;;;4995322;28;20041;-67
2021/05/05 07:25:59;;;;;;;6.70;1.20;;;15.60;70.40;;;;;;4995252;28;20030;-67
2021/05/05 07:28:24;;;;;;;6.28;1.02;;;15.50;70.40;;;;;;4995167;28;20030;-67
2021/05/05 07:30:50;;;;;;;3.42;0.85;;;15.70;71.00;;;;;;4995263;28;20038;-67
2021/05/05 07:33:16;;;;;;;4.05;1.00;;;15.70;70.70;;;;;;4993868;28;20472;-67
2021/05/05 07:35:49;;;;;;;3.55;1.00;;;15.90;70.60;;;;;;4993753;28;20038;-67
2021/05/05 07:46:20;;;;;;;2.63;0.82;;;15.70;66.80;;;;;;4995091;28;20518;-67
2021/05/05 07:48:51;;;;;;;7.43;1.35;;;15.70;67.10;;;;;;4993505;28;20033;-67
2021/05/05 07:51:17;;;;;;;2.63;0.80;;;15.80;70.00;;;;;;4993470;28;20046;-67
2021/05/05 07:53:43;;;;;;;5.82;0.90;;;16.10;69.90;;;;;;4994853;28;20455;-67
2021/05/05 07:56:08;;;;;;;3.28;0.80;;;15.80;69.40;;;;;;4994540;28;20034;-67
2021/05/05 07:58:34;;;;;;;3.10;0.90;;;15.80;69.40;;;;;;4994528;28;20074;-67
2021/05/05 08:01:00;;;;;;;3.88;1.02;;;15.80;69.70;;;;;;4994785;28;20110;-67
2021/05/05 08:03:26;;;;;;;1.38;0.60;;;15.80;69.80;;;;;;4994315;28;20125;-67
2021/05/05 08:05:51;;;;;;;8.45;1.25;;;15.70;70.20;;;;;;4994386;28;20054;-67
2021/05/05 08:08:17;;;;;;;2.55;0.77;;;15.80;69.70;;;;;;4993114;28;20019;-67
2021/05/05 08:10:42;;;;;;;2.90;1.10;;;15.80;69.50;;;;;;4976853;28;20037;-67
2021/05/05 08:13:08;;;;;;;3.13;1.00;;;16.20;69.90;;;;;;4994250;28;20395;-67
2021/05/05 08:15:34;;;;;;;7.20;1.10;;;15.90;70.20;;;;;;4994129;28;20069;-67
2021/05/05 08:18:05;;;;;;;2.47;0.75;;;15.70;69.80;;;;;;4994358;28;20440;-67
2021/05/05 08:20:34;;;;;;;4.18;0.90;;;15.80;70.00;;;;;;4993934;28;20038;-67
2021/05/05 08:23:01;;;;;;;5.03;0.90;;;15.90;70.80;;;;;;4976618;28;20014;-67
2021/05/05 08:25:27;;;;;;;1.92;0.90;;;16.60;71.10;;;;;;4993421;28;20026;-67
2021/05/05 08:27:53;;;;;;;3.88;1.08;;;15.80;70.30;;;;;;4992624;28;20033;-67
2021/05/05 08:30:19;;;;;;;4.30;0.85;;;15.60;70.10;;;;;;4992547;28;20038;-67
2021/05/05 08:32:45;;;;;;;1.15;0.60;;;15.70;69.10;;;;;;4976360;28;20467;-68
2021/05/05 08:35:12;;;;;;;2.17;0.93;;;15.70;70.40;;;;;;4993804;28;20037;-67
2021/05/05 08:37:38;;;;;;;4.85;1.00;;;15.70;69.10;;;;;;4993661;28;20137;-68
2021/05/05 08:40:07;;;;;;;3.95;1.20;;;16.20;69.00;;;;;;4993666;28;20365;-68
2021/05/05 08:42:33;;;;;;;3.17;0.85;;;15.70;92.00;;;;;;4993556;28;20049;-68
2021/05/05 08:44:59;;;;;;;3.15;1.13;;;15.90;67.50;;;;;;4993851;28;20471;-67
2021/05/05 08:47:25;;;;;;;5.22;1.27;;;16.10;67.40;;;;;;4993522;28;20018;-66
2021/05/05 08:49:50;;;;;;;3.65;0.93;;;16.10;66.60;;;;;;4993760;28;20027;-66
2021/05/05 08:52:16;;;;;;;6.18;1.05;;;16.00;65.40;;;;;;4992509;28;20030;-66
2021/05/05 08:54:42;;;;;;;5.78;0.90;;;16.40;66.10;;;;;;4993511;28;20041;-66
2021/05/05 08:57:08;;;;;;;4.40;1.10;;;16.00;65.30;;;;;;4993481;28;20030;-67
2021/05/05 08:59:34;;;;;;;1.85;0.77;;;16.50;66.20;;;;;;4993203;28;20054;-67
2021/05/05 09:02:00;;;;;;;2.65;0.90;;;16.40;65.50;;;;;;4993423;28;20064;-54
2021/05/05 09:04:26;;;;;;;3.83;1.00;;;17.00;66.40;;;;;;4993078;28;20089;-67
2021/05/05 09:06:57;;;;;;;3.60;1.00;;;16.40;66.40;;;;;;4993408;28;20034;-67
2021/05/05 09:09:58;;;;;;;3.65;1.23;;;16.10;66.60;;;;;;4993258;28;20034;-66
2021/05/05 09:12:25;;;;;;;3.35;1.17;;;16.20;66.90;;;;;;4955204;28;20045;-67
2021/05/05 09:14:50;;;;;;;2.78;0.80;;;16.40;66.60;;;;;;4993163;28;20022;-66
2021/05/05 09:17:37;;;;;;;6.68;1.25;;;16.00;66.20;;;;;;4993084;28;20434;-66
2021/05/05 09:20:06;;;;;;;4.18;1.10;;;16.00;66.70;;;;;;4993447;28;20022;-66
2021/05/05 09:22:45;;;;;;;3.00;0.98;;;16.00;66.00;;;;;;4993138;28;20030;-65
2021/05/05 09:25:35;;;;;;;4.95;1.27;;;16.30;65.50;;;;;;4992931;28;20077;-66
2021/05/05 09:28:10;;;;;;;4.30;0.95;;;16.10;60.00;;;;;;4984970;28;20045;-66
2021/05/05 09:30:36;;;;;;;3.25;0.80;;;16.20;64.30;;;;;;4992758;28;20046;-66
2021/05/05 09:33:02;;;;;;;1.42;0.60;;;16.20;64.00;;;;;;4992893;28;20030;-66
2021/05/05 09:35:33;;;;;;;2.20;0.90;;;16.20;62.80;;;;;;4993143;28;20029;-66
2021/05/05 09:38:03;;;;;;;3.80;0.77;;;16.10;63.30;;;;;;4994866;28;20066;-66
2021/05/05 09:40:29;;;;;;;2.33;0.75;;;16.60;63.70;;;;;;4997223;28;20080;-66
2021/05/05 09:42:55;;;;;;;1.52;0.73;;;16.40;63.30;;;;;;4979582;28;20104;-66
2021/05/05 09:45:30;;;;;;;1.02;0.40;;;16.20;62.90;;;;;;4996661;28;20029;-66
2021/05/05 09:47:58;;;;;;;3.05;1.30;;;16.60;62.70;;;;;;4996866;28;20399;-66
2021/05/05 09:50:38;;;;;;;3.05;0.73;;;17.30;62.80;;;;;;4979194;28;20487;-66
2021/05/05 09:53:23;;;;;;;1.85;0.82;;;16.30;57.90;;;;;;4996873;28;20027;-66
2021/05/05 09:56:07;;;;;;;2.40;0.88;;;16.30;58.10;;;;;;4996752;28;20120;-66
2021/05/05 09:58:41;;;;;;;3.05;0.80;;;16.30;62.20;;;;;;4996764;28;20029;-66
2021/05/05 10:01:07;;;;;;;2.50;0.60;;;15.90;58.00;;;;;;4979089;28;20108;-66
2021/05/05 10:03:50;;;;;;;1.95;0.73;;;17.70;63.20;;;;;;4996367;28;20061;-66
2021/05/05 10:06:24;;;;;;;3.60;1.13;;;16.30;58.60;;;;;;4996598;28;20045;-66
2021/05/05 10:09:10;;;;;;;2.45;0.70;;;16.30;59.00;;;;;;4978848;28;20045;-66
2021/05/05 10:11:38;;;;;;;4.22;0.93;;;16.70;63.50;;;;;;4979190;28;20058;-66
2021/05/05 10:14:06;;;;;;;3.10;0.70;;;16.60;63.40;;;;;;4996362;28;20495;-65
2021/05/05 10:16:36;;;;;;;3.70;0.82;;;16.30;63.20;;;;;;4996136;28;20045;-66
2021/05/05 10:19:06;;;;;;;2.85;0.63;;;16.30;63.00;;;;;;4978854;28;20026;-66
2021/05/05 10:21:35;;;;;;;3.40;0.90;;;16.40;62.60;;;;;;4996339;28;20015;-66
2021/05/05 10:24:01;;;;;;;2.13;0.80;;;16.40;62.10;;;;;;4996271;28;20033;-66
2021/05/05 10:26:28;;;;;;;3.92;1.05;;;16.30;61.40;;;;;;4996429;28;20019;-66
2021/05/05 10:28:54;;;;;;;2.30;0.80;;;16.90;61.70;;;;;;4996002;28;20061;-66
2021/05/05 10:31:23;;;;;;;3.22;1.08;;;16.40;61.00;;;;;;4996283;28;20396;-66
2021/05/05 10:33:52;;;;;;;2.78;0.60;;;16.90;61.80;;;;;;4978539;28;20049;-66
2021/05/05 10:36:40;;;;;;;3.10;0.88;;;16.70;61.60;;;;;;4996344;28;20037;-66
2021/05/05 10:39:17;;;;;;;2.70;0.70;;;16.60;57.40;;;;;;4996380;28;20023;-66
2021/05/05 10:42:05;;;;;;;2.47;0.73;;;16.50;60.80;;;;;;4996365;28;20030;-66
2021/05/05 10:44:35;;;;;;;1.92;0.82;;;16.90;60.70;;;;;;4986547;28;20039;-66
2021/05/05 10:47:11;;;;;;;1.53;0.67;;;16.70;60.00;;;;;;4995991;28;20029;-66
2021/05/05 10:50:03;;;;;;;2.17;0.60;;;16.70;59.70;;;;;;4995298;28;20030;-66
2021/05/05 10:52:54;;;;;;;2.25;0.70;;;16.60;55.40;;;;;;4970627;28;20039;-66
2021/05/05 10:55:49;;;;;;;4.22;1.00;;;16.50;59.20;;;;;;4986769;28;20030;-66
2021/05/05 10:58:24;;;;;;;3.17;1.30;;;16.90;59.00;;;;;;4994401;28;20519;-66
2021/05/05 11:00:55;;;;;;;2.97;0.82;;;17.00;58.70;;;;;;4995703;28;20033;-66
2021/05/05 11:03:43;;;;;;;2.22;0.85;;;16.20;58.80;;;;;;4995633;28;20089;-66
2021/05/05 11:06:30;;;;;;;0.82;0.70;;;16.60;55.10;;;;;;4995629;28;20031;-67
2021/05/05 11:09:11;;;;;;;1.60;0.73;;;16.50;55.20;;;;;;4995799;28;20046;-67
2021/05/05 11:11:51;;;;;;;2.17;0.70;;;16.60;59.10;;;;;;4995401;28;20428;-66
2021/05/05 11:14:30;;;;;;;2.13;0.60;;;16.60;55.00;;;;;;4995729;28;20026;-66
2021/05/05 11:17:05;;;;;;;2.33;0.80;;;16.90;59.10;;;;;;4995733;28;20569;-66
2021/05/05 11:19:40;;;;;;;2.42;0.63;;;16.70;55.50;;;;;;4977997;28;20034;-66
2021/05/05 11:22:27;;;;;;;1.13;0.73;;;16.90;55.50;;;;;;4995241;28;20026;-66
2021/05/05 11:24:53;;;;;;;2.63;0.80;;;16.60;85.80;;;;;;4994887;28;20026;-66
2021/05/05 11:27:45;;;;;;;3.30;0.65;;;16.70;58.30;;;;;;4995169;28;20606;-66
2021/05/05 11:30:29;;;;;;;4.45;1.17;;;16.60;54.60;;;;;;4977781;28;20495;-67
2021/05/05 11:32:56;;;;;;;3.60;1.08;;;16.70;58.50;;;;;;4995394;28;20033;-66
2021/05/05 11:35:29;;;;;;;2.80;0.80;;;16.60;58.50;;;;;;4995030;28;20109;-66
2021/05/05 11:38:23;;;;;;;2.80;0.98;;;16.60;58.80;;;;;;4977519;28;20101;-66
2021/05/05 11:40:56;;;;;;;1.27;0.90;;;16.60;55.00;;;;;;4994882;28;20030;-66
2021/05/05 11:43:24;;;;;;;1.95;0.80;;;16.70;54.40;;;;;;4977390;28;20443;-66
2021/05/05 11:45:56;;;;;;;2.13;0.57;;;16.80;58.30;;;;;;4977337;28;20042;-66
2021/05/05 11:48:31;;;;;;;2.30;0.80;;;16.70;54.90;;;;;;4994903;28;20379;-66
2021/05/05 11:50:57;;;;;;;1.88;0.82;;;16.70;58.20;;;;;;4994591;28;20030;-67
2021/05/05 11:53:34;;;;;;;3.60;1.00;;;16.60;57.70;;;;;;4994681;28;20026;-66
2021/05/05 11:56:00;;;;;;;3.15;0.77;;;17.10;58.60;;;;;;4994778;28;20387;-66
2021/05/05 11:58:26;;;;;;;1.40;0.80;;;16.70;57.80;;;;;;4994456;28;20018;-66
2021/05/05 12:00:53;;;;;;;4.05;1.33;;;17.30;58.30;;;;;;4993455;28;20034;-66
2021/05/05 12:03:26;;;;;;;2.92;0.88;;;16.70;57.70;;;;;;4994052;28;20478;-67
2021/05/05 12:05:54;;;;;;;2.67;0.88;;;16.80;58.40;;;;;;4994539;28;20062;-66
2021/05/05 12:08:23;;;;;;;1.35;0.77;;;16.70;58.30;;;;;;4976679;28;20065;-66
2021/05/05 12:11:00;;;;;;;1.27;0.68;;;16.70;58.40;;;;;;4976664;28;20081;-66
2021/05/05 12:13:44;;;;;;;2.95;0.68;;;16.80;58.50;;;;;;4994191;28;20030;-66
2021/05/05 12:16:30;;;;;;;2.25;0.60;;;16.60;58.20;;;;;;4994079;28;20026;-67
2021/05/05 12:18:56;;;;;;;1.90;0.55;;;16.60;55.00;;;;;;4994022;28;20089;-66
2021/05/05 12:21:25;;;;;;;2.10;0.90;;;16.60;58.10;;;;;;4976444;28;20022;-67
2021/05/05 12:24:00;;;;;;;2.45;0.70;;;16.70;58.10;;;;;;4994443;28;20034;-66
2021/05/05 12:26:31;;;;;;;2.35;0.93;;;16.60;54.10;;;;;;4994062;28;20495;-66
2021/05/05 12:29:06;;;;;;;3.35;0.90;;;17.30;58.40;;;;;;4994097;28;20092;-66
2021/05/05 12:31:37;;;;;;;3.17;0.98;;;16.60;53.90;;;;;;4994035;28;20034;-66
2021/05/05 12:34:05;;;;;;;2.97;0.88;;;16.60;53.70;;;;;;4994051;28;20030;-67
2021/05/05 12:36:38;;;;;;;2.50;0.95;;;16.70;57.90;;;;;;4993820;28;20026;-66
2021/05/05 12:39:12;;;;;;;3.42;0.98;;;17.10;58.30;;;;;;4993789;28;20014;-66
2021/05/05 12:41:42;;;;;;;3.70;0.80;;;16.90;58.20;;;;;;4993803;28;20026;-66
2021/05/05 12:44:09;;;;;;;4.82;1.00;;;16.60;58.40;;;;;;4976219;28;20056;-66
2021/05/05 12:46:55;;;;;;;1.75;0.88;;;16.50;57.80;;;;;;4993787;28;20026;-66
2021/05/05 12:49:34;;;;;;;4.53;1.33;;;16.60;53.90;;;;;;4993666;28;20038;-67
2021/05/05 12:52:01;;;;;;;3.83;0.93;;;16.60;54.10;;;;;;4993608;28;20033;-66
2021/05/05 12:54:31;;;;;;;2.95;0.95;;;16.70;57.90;;;;;;4993594;28;20022;-66
2021/05/05 12:56:58;;;;;;;1.60;1.02;;;16.90;58.10;;;;;;4993725;28;20125;-66
2021/05/05 12:59:29;;;;;;;3.75;0.88;;;16.90;58.00;;;;;;4993649;28;20422;-67
2021/05/05 13:02:07;;;;;;;3.33;0.85;;;17.40;58.60;;;;;;4993586;28;20173;-66